This is the latest recevied weather packets stored in our database for station/object DG7AA-13. If no packets are shown the sender has not sent any weather packets the latest 10 day(s).
| Time | Temp. | Humidity | Pressure | Rain* | Wind** | Luminosity | Snow |
|---|---|---|---|---|---|---|---|
| 1777709725 | 21.11° C | 45% | - | 0 mm | - | - | - |
| 1777709123 | 20° C | 51% | - | 0 mm | - | - | - |
| 1777708534 | 20° C | 52% | - | 0 mm | - | - | - |
| 1777707927 | 18.33° C | 56% | - | 0 mm | - | - | - |
| 1777707334 | 16.11° C | 62% | - | 0 mm | - | - | - |
| 1777706724 | 15.56° C | 64% | - | 0 mm | - | - | - |
| 1777706132 | 15° C | 66% | - | 0 mm | - | - | - |
| 1777705523 | 14.44° C | 67% | - | 0 mm | - | - | - |
| 1777704925 | 13.89° C | 70% | - | 0 mm | - | - | - |
| 1777704324 | 13.33° C | 73% | - | 0 mm | - | - | - |
| 1777703725 | 12.78° C | 74% | - | 0 mm | - | - | - |
| 1777703138 | 12.22° C | 76% | - | 0 mm | - | - | - |
| 1777702532 | 11.67° C | 77% | - | 0 mm | - | - | - |
| 1777701924 | 10.56° C | 82% | - | 0 mm | - | - | - |
| 1777701334 | 10° C | 85% | - | 0 mm | - | - | - |
| 1777700724 | 9.44° C | 86% | - | 0 mm | - | - | - |
| 1777700126 | 8.89° C | 88% | - | 0 mm | - | - | - |
| 1777699523 | 7.78° C | 92% | - | 0 mm | - | - | - |
| 1777698932 | 6.11° C | 94% | - | 0 mm | - | - | - |
| 1777698326 | 5° C | 93% | - | 0 mm | - | - | - |
| 1777697731 | 5° C | 92% | - | 0 mm | - | - | - |
| 1777697124 | 5° C | 92% | - | 0 mm | - | - | - |
| 1777696534 | 5.56° C | 92% | - | 0 mm | - | - | - |
| 1777695927 | 5.56° C | 93% | - | 0 mm | - | - | - |
| 1777695335 | 5.56° C | 93% | - | 0 mm | - | - | - |
* Rain latest hour (hover to see other rain measurements)
** Current wind speed in m/s (hover to see current wind gust speed)